createdAt,value
2023-01-19T00:00:43.356Z,24.9
2023-01-19T00:01:45.631Z,24.9
2023-01-19T00:02:47.669Z,24.9
2023-01-19T00:03:49.813Z,24.9
2023-01-19T00:04:51.747Z,24.9
2023-01-19T00:05:53.634Z,24.9
2023-01-19T00:06:55.811Z,24.9
2023-01-19T00:07:58.266Z,24.9
2023-01-19T00:09:01.416Z,24.9
2023-01-19T00:10:03.258Z,24.9
2023-01-19T00:11:05.416Z,24.9
2023-01-19T00:12:07.370Z,24.9
2023-01-19T00:13:09.214Z,24.9
2023-01-19T00:14:11.111Z,24.9
2023-01-19T00:15:13.104Z,24.9
2023-01-19T00:16:15.036Z,24.8
2023-01-19T00:17:17.196Z,24.9
2023-01-19T00:18:19.082Z,24.8
2023-01-19T00:19:20.998Z,24.8
2023-01-19T00:20:22.883Z,24.8
2023-01-19T00:21:24.761Z,24.8
2023-01-19T00:22:26.733Z,24.9
2023-01-19T00:23:28.527Z,24.8
2023-01-19T00:24:30.353Z,24.8
2023-01-19T00:25:32.383Z,24.9
2023-01-19T00:26:34.392Z,24.9
2023-01-19T00:27:36.552Z,24.8
2023-01-19T00:28:38.371Z,24.8
2023-01-19T00:29:40.253Z,24.8
2023-01-19T00:30:42.094Z,24.9
2023-01-19T00:31:44.053Z,24.8
2023-01-19T00:32:46.212Z,24.8
2023-01-19T00:33:48.060Z,24.8
2023-01-19T00:34:49.899Z,24.8
2023-01-19T00:35:51.846Z,24.8
2023-01-19T00:36:56.491Z,24.8
2023-01-19T00:37:58.343Z,24.8
2023-01-19T00:39:00.085Z,24.8
2023-01-19T00:40:01.917Z,24.8
2023-01-19T00:41:03.952Z,24.8
2023-01-19T00:42:05.875Z,24.8
2023-01-19T00:43:07.684Z,24.8
2023-01-19T00:44:09.526Z,24.8
2023-01-19T00:45:11.377Z,24.8
2023-01-19T00:46:13.352Z,24.8
2023-01-19T00:47:15.376Z,24.8
2023-01-19T00:48:17.164Z,24.8
2023-01-19T00:49:18.982Z,24.8
2023-01-19T00:50:20.898Z,24.8
2023-01-19T00:51:22.675Z,24.8
2023-01-19T00:52:24.472Z,24.8
2023-01-19T00:53:26.369Z,24.8
2023-01-19T00:54:28.232Z,24.8
2023-01-19T00:55:30.098Z,24.8
2023-01-19T00:56:31.941Z,24.8
2023-01-19T00:57:33.917Z,24.8
2023-01-19T00:58:35.848Z,24.8
2023-01-19T00:59:37.677Z,24.8
2023-01-19T01:00:39.618Z,24.8
2023-01-19T01:01:44.907Z,24.8
2023-01-19T01:02:52.747Z,24.8
2023-01-19T01:03:54.968Z,24.8
2023-01-19T01:04:56.994Z,24.8
2023-01-19T01:05:58.836Z,24.7
2023-01-19T01:07:00.669Z,24.8
2023-01-19T01:08:02.491Z,24.8
2023-01-19T01:09:04.520Z,24.8
2023-01-19T01:10:06.430Z,24.8
2023-01-19T01:11:08.196Z,24.8
2023-01-19T01:12:10.025Z,24.8
2023-01-19T01:13:20.098Z,24.8
2023-01-19T01:14:29.863Z,24.8
2023-01-19T01:15:32.070Z,24.8
2023-01-19T01:16:34.160Z,24.8
2023-01-19T01:17:36.276Z,24.8
2023-01-19T01:18:38.122Z,24.8
2023-01-19T01:19:40.020Z,24.8
2023-01-19T01:20:41.917Z,24.8
2023-01-19T01:21:43.749Z,24.8
2023-01-19T01:22:45.515Z,24.8
2023-01-19T01:23:47.381Z,24.8
2023-01-19T01:24:49.231Z,24.7
2023-01-19T01:25:50.973Z,24.7
2023-01-19T01:26:53.021Z,24.7
2023-01-19T01:27:54.882Z,24.7
2023-01-19T01:28:56.938Z,24.7
2023-01-19T01:29:58.774Z,24.7
2023-01-19T01:31:00.544Z,24.7
2023-01-19T01:32:02.372Z,24.7
2023-01-19T01:33:04.223Z,24.7
2023-01-19T01:34:06.147Z,24.7
2023-01-19T01:35:08.095Z,24.7
2023-01-19T01:36:09.982Z,24.7
2023-01-19T01:37:11.832Z,24.7
2023-01-19T01:38:13.685Z,24.7
2023-01-19T01:39:15.525Z,24.7
2023-01-19T01:40:17.459Z,24.7
2023-01-19T01:41:20.605Z,24.7
2023-01-19T01:42:28.041Z,24.7
2023-01-19T01:43:29.991Z,24.7
2023-01-19T01:44:31.864Z,24.7
2023-01-19T01:45:34.177Z,24.7
2023-01-19T01:46:36.272Z,24.7
2023-01-19T01:47:37.992Z,24.7
2023-01-19T01:48:39.904Z,24.7
2023-01-19T01:49:41.806Z,24.7
2023-01-19T01:50:43.670Z,24.7
2023-01-19T01:51:45.511Z,24.7
2023-01-19T01:53:06.258Z,24.7
2023-01-19T01:54:10.211Z,24.7
2023-01-19T01:55:12.049Z,24.7
2023-01-19T01:56:13.945Z,24.7
2023-01-19T01:57:15.749Z,24.7
2023-01-19T01:58:17.603Z,24.7
2023-01-19T01:59:19.353Z,24.7
2023-01-19T02:00:21.301Z,24.7
2023-01-19T02:01:23.355Z,24.7
2023-01-19T02:02:25.615Z,24.7
2023-01-19T02:03:28.533Z,24.7
2023-01-19T02:04:30.652Z,24.7
2023-01-19T02:05:32.431Z,24.6
2023-01-19T02:06:34.091Z,24.6
2023-01-19T02:07:35.998Z,24.7
2023-01-19T02:08:37.885Z,24.6
2023-01-19T02:09:39.792Z,24.6
2023-01-19T02:10:41.571Z,24.6
2023-01-19T02:11:43.486Z,24.6
2023-01-19T02:12:45.344Z,24.6
2023-01-19T02:13:47.034Z,24.6
2023-01-19T02:14:48.941Z,24.6
2023-01-19T02:15:50.847Z,24.6
2023-01-19T02:16:52.850Z,24.6
2023-01-19T02:17:54.930Z,24.6
2023-01-19T02:18:56.756Z,24.6
2023-01-19T02:19:58.615Z,24.6
2023-01-19T02:21:00.449Z,24.6
2023-01-19T02:22:02.207Z,24.6
2023-01-19T02:23:04.031Z,24.6
2023-01-19T02:24:05.909Z,24.6
2023-01-19T02:25:07.746Z,24.6
2023-01-19T02:26:09.702Z,24.6
2023-01-19T02:27:11.564Z,24.6
2023-01-19T02:28:13.593Z,24.6
2023-01-19T02:29:15.322Z,24.6
2023-01-19T02:30:17.112Z,24.6
2023-01-19T02:31:18.987Z,24.6
2023-01-19T02:32:20.965Z,24.6
2023-01-19T02:33:22.752Z,24.6
2023-01-19T02:34:24.653Z,24.6
2023-01-19T02:35:26.536Z,24.5
2023-01-19T02:36:28.435Z,24.5
2023-01-19T02:37:30.461Z,24.5
2023-01-19T02:38:32.402Z,24.6
2023-01-19T02:39:34.244Z,24.6
2023-01-19T02:40:36.119Z,24.6
2023-01-19T02:41:37.959Z,24.6
2023-01-19T02:42:39.822Z,24.6
2023-01-19T02:43:41.630Z,24.6
2023-01-19T02:44:43.527Z,24.6
2023-01-19T02:45:45.421Z,24.6
2023-01-19T02:46:47.488Z,24.6
2023-01-19T02:47:49.372Z,24.6
2023-01-19T02:48:51.318Z,24.6
2023-01-19T02:49:53.178Z,24.6
2023-01-19T02:50:55.034Z,24.5
2023-01-19T02:51:56.856Z,24.6
2023-01-19T02:52:59.008Z,24.5
2023-01-19T02:54:02.372Z,24.6
2023-01-19T02:55:07.286Z,24.5
2023-01-19T02:56:09.196Z,24.6
2023-01-19T02:57:11.083Z,24.5
2023-01-19T02:58:12.894Z,24.5
2023-01-19T02:59:14.917Z,24.5
2023-01-19T03:00:16.793Z,24.5
2023-01-19T03:01:18.725Z,24.5
2023-01-19T03:02:21.236Z,24.5
2023-01-19T03:03:23.994Z,24.5
2023-01-19T03:04:25.840Z,24.5
2023-01-19T03:05:27.608Z,24.5
2023-01-19T03:06:29.425Z,24.6
2023-01-19T03:07:31.275Z,24.5
2023-01-19T03:08:33.130Z,24.5
2023-01-19T03:09:35.060Z,24.5
2023-01-19T03:10:36.930Z,24.5
2023-01-19T03:11:38.788Z,24.5
2023-01-19T03:12:40.717Z,24.5
2023-01-19T03:13:42.608Z,24.5
2023-01-19T03:14:44.529Z,24.5
2023-01-19T03:15:46.437Z,24.5
2023-01-19T03:16:48.727Z,24.5
2023-01-19T03:17:50.909Z,24.5
2023-01-19T03:18:52.769Z,24.5
2023-01-19T03:19:54.642Z,24.5
2023-01-19T03:20:56.626Z,24.5
2023-01-19T03:21:58.513Z,24.5
2023-01-19T03:23:00.854Z,24.5
2023-01-19T03:24:04.883Z,24.5
2023-01-19T03:25:06.807Z,24.5
2023-01-19T03:26:08.672Z,24.5
2023-01-19T03:27:10.530Z,24.5
2023-01-19T03:28:12.380Z,24.4
2023-01-19T03:29:14.237Z,24.4
2023-01-19T03:30:16.130Z,24.4
2023-01-19T03:31:17.991Z,24.5
2023-01-19T03:32:20.187Z,24.5
2023-01-19T03:33:22.061Z,24.4
2023-01-19T03:34:23.946Z,24.4
2023-01-19T03:35:25.841Z,24.4
2023-01-19T03:36:27.671Z,24.4
2023-01-19T03:37:29.532Z,24.4
2023-01-19T03:38:31.286Z,24.4
2023-01-19T03:39:33.226Z,24.4
2023-01-19T03:40:35.093Z,24.4
2023-01-19T03:41:36.941Z,24.4
2023-01-19T03:42:38.726Z,24.4
2023-01-19T03:43:40.661Z,24.4
2023-01-19T03:44:42.660Z,24.4
2023-01-19T03:45:44.539Z,24.4
2023-01-19T03:46:46.386Z,24.4
2023-01-19T03:47:48.212Z,24.4
2023-01-19T03:48:50.227Z,24.5
2023-01-19T03:49:52.237Z,24.5
2023-01-19T03:50:53.993Z,24.5
2023-01-19T03:51:55.859Z,24.5
2023-01-19T03:52:58.291Z,24.5
2023-01-19T03:54:01.495Z,24.5
2023-01-19T03:55:03.518Z,24.5
2023-01-19T03:56:05.298Z,24.5
2023-01-19T03:57:07.119Z,24.5
2023-01-19T03:58:09.007Z,24.5
2023-01-19T03:59:10.733Z,24.5
2023-01-19T04:00:12.768Z,24.5
2023-01-19T04:01:14.758Z,24.5
2023-01-19T04:02:17.214Z,24.5
2023-01-19T04:03:19.368Z,24.5
2023-01-19T04:04:21.334Z,24.5
2023-01-19T04:05:23.173Z,24.5
2023-01-19T04:06:24.917Z,24.5
2023-01-19T04:07:26.780Z,24.5
2023-01-19T04:08:28.615Z,24.5
2023-01-19T04:09:30.487Z,24.4
2023-01-19T04:10:32.268Z,24.4
2023-01-19T04:11:34.061Z,24.4
2023-01-19T04:12:35.926Z,24.4
2023-01-19T04:13:37.669Z,24.4
2023-01-19T04:14:39.532Z,24.4
2023-01-19T04:15:41.312Z,24.3
2023-01-19T04:16:43.413Z,24.3
2023-01-19T04:17:45.270Z,24.3
2023-01-19T04:18:47.122Z,24.3
2023-01-19T04:19:49.109Z,24.3
2023-01-19T04:20:51.163Z,24.3
2023-01-19T04:21:53.186Z,24.3
2023-01-19T04:22:55.048Z,24.4
2023-01-19T04:23:56.879Z,24.4
2023-01-19T04:25:01.618Z,24.4
2023-01-19T04:26:03.466Z,24.4
2023-01-19T04:27:05.298Z,24.4
2023-01-19T04:28:07.139Z,24.4
2023-01-19T04:29:08.994Z,24.5
2023-01-19T04:30:10.824Z,24.5
2023-01-19T04:31:15.443Z,24.5
2023-01-19T04:32:17.418Z,24.5
2023-01-19T04:33:19.272Z,24.5
2023-01-19T04:34:21.084Z,24.6
2023-01-19T04:35:23.036Z,24.6
2023-01-19T04:36:25.002Z,24.6
2023-01-19T04:37:26.875Z,24.6
2023-01-19T04:38:28.752Z,24.6
2023-01-19T04:39:30.563Z,24.5
2023-01-19T04:40:32.326Z,24.5
2023-01-19T04:41:34.249Z,24.5
2023-01-19T04:42:36.125Z,24.4
2023-01-19T04:43:37.991Z,24.3
2023-01-19T04:44:39.826Z,24.3
2023-01-19T04:45:41.670Z,24.2
2023-01-19T04:46:46.517Z,24.2
2023-01-19T04:47:48.437Z,24.1
2023-01-19T04:48:50.115Z,24.1
2023-01-19T04:49:51.881Z,24
2023-01-19T04:50:53.849Z,24
2023-01-19T04:51:55.784Z,23.9
2023-01-19T04:52:57.486Z,23.9
2023-01-19T04:54:00.479Z,23.9
2023-01-19T04:55:02.623Z,23.9
2023-01-19T04:56:05.080Z,23.9
2023-01-19T04:57:06.982Z,23.9
2023-01-19T04:58:08.940Z,23.8
2023-01-19T04:59:10.677Z,23.9
2023-01-19T05:00:12.366Z,23.8
2023-01-19T05:01:14.375Z,23.8
2023-01-19T05:02:16.751Z,23.8
2023-01-19T05:03:18.864Z,23.8
2023-01-19T05:04:20.901Z,23.8
2023-01-19T05:05:22.753Z,23.8
2023-01-19T05:06:24.674Z,23.8
2023-01-19T05:07:26.772Z,23.8
2023-01-19T05:08:28.508Z,23.7
2023-01-19T05:09:33.029Z,23.7
2023-01-19T05:10:34.802Z,23.8
2023-01-19T05:11:36.728Z,23.8
2023-01-19T05:12:38.507Z,23.8
2023-01-19T05:13:40.247Z,23.8
2023-01-19T05:14:42.068Z,23.8
2023-01-19T05:15:43.964Z,23.7
2023-01-19T05:16:46.070Z,23.8
2023-01-19T05:17:48.026Z,23.8
2023-01-19T05:18:49.726Z,23.8
2023-01-19T05:19:51.556Z,23.8
2023-01-19T05:20:53.480Z,23.7
2023-01-19T05:21:55.349Z,23.7
2023-01-19T05:22:57.432Z,23.8
2023-01-19T05:24:00.822Z,23.8
2023-01-19T05:25:02.721Z,23.8
2023-01-19T05:26:04.421Z,23.8
2023-01-19T05:27:06.309Z,23.9
2023-01-19T05:28:08.109Z,24
2023-01-19T05:29:09.931Z,24
2023-01-19T05:30:11.724Z,24.1
2023-01-19T05:31:13.740Z,24.2
2023-01-19T05:32:16.074Z,24.2
2023-01-19T05:33:17.909Z,24.3
2023-01-19T05:34:19.965Z,24.3
2023-01-19T05:35:31.235Z,24.4
2023-01-19T05:36:38.116Z,24.4
2023-01-19T05:37:39.987Z,24.4
2023-01-19T05:38:41.838Z,24.5
2023-01-19T05:39:43.748Z,24.6
2023-01-19T05:40:45.636Z,24.6
2023-01-19T05:41:47.473Z,24.6
2023-01-19T05:42:49.325Z,24.6
2023-01-19T05:43:51.069Z,24.6
2023-01-19T05:44:52.987Z,24.6
2023-01-19T05:45:54.875Z,24.6
2023-01-19T05:46:56.667Z,24.6
2023-01-19T05:47:58.753Z,24.6
2023-01-19T05:49:00.687Z,24.6
2023-01-19T05:50:02.556Z,24.7
2023-01-19T05:51:04.439Z,24.7
2023-01-19T05:52:06.456Z,24.7
2023-01-19T05:53:08.360Z,24.7
2023-01-19T05:54:10.180Z,24.7
2023-01-19T05:55:11.927Z,24.8
2023-01-19T05:56:13.803Z,24.8
2023-01-19T05:57:15.624Z,24.7
2023-01-19T05:58:17.474Z,24.8
2023-01-19T05:59:19.340Z,24.8
2023-01-19T06:00:21.082Z,24.8
2023-01-19T06:01:22.920Z,24.7
2023-01-19T06:02:24.921Z,24.7
2023-01-19T06:03:27.026Z,24.7
2023-01-19T06:04:29.135Z,24.7
2023-01-19T06:05:30.956Z,24.7
2023-01-19T06:06:32.934Z,24.7
2023-01-19T06:07:34.817Z,24.7
2023-01-19T06:08:36.686Z,24.7
2023-01-19T06:09:38.657Z,24.6
2023-01-19T06:10:40.495Z,24.6
2023-01-19T06:11:42.449Z,24.6
2023-01-19T06:12:44.312Z,24.7
2023-01-19T06:13:46.335Z,24.7
2023-01-19T06:14:48.212Z,24.7
2023-01-19T06:15:50.060Z,24.7
2023-01-19T06:16:51.990Z,24.7
2023-01-19T06:17:53.798Z,24.7
2023-01-19T06:18:55.606Z,24.8
2023-01-19T06:19:57.462Z,24.8
2023-01-19T06:20:59.281Z,24.8
2023-01-19T06:22:01.127Z,24.8
2023-01-19T06:23:03.437Z,24.8
2023-01-19T06:24:05.907Z,24.8
2023-01-19T06:25:07.922Z,24.9
2023-01-19T06:26:09.720Z,24.9
2023-01-19T06:27:11.534Z,24.9
2023-01-19T06:28:13.365Z,24.9
2023-01-19T06:29:15.337Z,24.9
2023-01-19T06:30:17.017Z,24.9
2023-01-19T06:31:18.918Z,24.9
2023-01-19T06:32:21.144Z,24.9
2023-01-19T06:33:22.868Z,24.9
2023-01-19T06:34:27.659Z,25
2023-01-19T06:35:29.415Z,25
2023-01-19T06:36:31.232Z,25.1
2023-01-19T06:37:33.002Z,25.1
2023-01-19T06:38:34.732Z,25.1
2023-01-19T06:39:36.650Z,25.1
2023-01-19T06:40:38.770Z,25.2
2023-01-19T06:41:40.605Z,25.2
2023-01-19T06:42:42.449Z,25.2
2023-01-19T06:43:44.554Z,25.2
2023-01-19T06:44:46.454Z,25.3
2023-01-19T06:45:48.273Z,25.3
2023-01-19T06:46:50.471Z,25.4
2023-01-19T06:47:52.316Z,25.4
2023-01-19T06:48:54.196Z,25.4
2023-01-19T06:49:56.215Z,25.4
2023-01-19T06:50:59.619Z,25.4
2023-01-19T06:52:01.768Z,25.4
2023-01-19T06:53:03.658Z,25.5
2023-01-19T06:54:05.461Z,25.5
2023-01-19T06:55:07.333Z,25.6
2023-01-19T06:56:09.233Z,25.6
2023-01-19T06:57:11.779Z,25.6
2023-01-19T06:58:13.683Z,25.6
2023-01-19T06:59:15.438Z,25.6
2023-01-19T07:00:17.213Z,25.6
2023-01-19T07:01:19.257Z,25.6
2023-01-19T07:02:27.106Z,25.6
2023-01-19T07:03:31.614Z,25.7
2023-01-19T07:04:33.523Z,25.7
2023-01-19T07:05:35.341Z,25.8
2023-01-19T07:06:37.316Z,25.9
2023-01-19T07:07:39.706Z,25.9
2023-01-19T07:08:41.565Z,25.8
2023-01-19T07:09:43.361Z,25.9
2023-01-19T07:11:22.466Z,25.8
2023-01-19T07:12:35.141Z,26
2023-01-19T07:13:37.365Z,26
2023-01-19T07:14:39.294Z,26
2023-01-19T07:15:41.212Z,26
2023-01-19T07:16:43.105Z,26
2023-01-19T07:17:45.375Z,26
2023-01-19T07:18:47.411Z,26
2023-01-19T07:19:49.138Z,26
2023-01-19T07:20:50.930Z,26
2023-01-19T07:21:52.695Z,26
2023-01-19T07:22:54.508Z,26
2023-01-19T07:23:56.259Z,26
2023-01-19T07:24:58.081Z,26.1
2023-01-19T07:25:59.917Z,26
2023-01-19T07:27:01.717Z,26.1
2023-01-19T07:28:03.650Z,26.1
2023-01-19T07:29:05.543Z,26
2023-01-19T07:30:07.278Z,26.1
2023-01-19T07:31:09.305Z,26.1
2023-01-19T07:32:11.711Z,26.1
2023-01-19T07:33:13.677Z,26.1
2023-01-19T07:34:15.575Z,26.2
2023-01-19T07:35:17.360Z,26.2
2023-01-19T07:36:19.247Z,26.2
2023-01-19T07:37:21.102Z,26.3
2023-01-19T07:38:23.034Z,26.3
2023-01-19T07:39:24.919Z,26.2
2023-01-19T07:40:26.809Z,26.3
2023-01-19T07:41:28.839Z,26.3
2023-01-19T07:42:30.503Z,26.3
2023-01-19T07:43:32.607Z,26.3
2023-01-19T07:44:34.482Z,26.3
2023-01-19T07:45:36.361Z,26.3
2023-01-19T07:46:38.482Z,26.4
2023-01-19T07:47:40.347Z,26.5
2023-01-19T07:48:42.257Z,26.5
2023-01-19T07:49:44.141Z,26.5
2023-01-19T07:50:45.966Z,26.5
2023-01-19T07:51:47.845Z,26.5
2023-01-19T07:52:49.891Z,26.5
2023-01-19T07:53:51.826Z,26.5
2023-01-19T07:54:53.721Z,26.5
2023-01-19T07:55:55.550Z,26.5
2023-01-19T07:56:57.315Z,26.5
2023-01-19T07:57:59.084Z,26.5
2023-01-19T07:59:01.274Z,26.5
2023-01-19T08:00:03.295Z,26.5
2023-01-19T08:01:05.233Z,26.5
2023-01-19T08:02:07.992Z,26.5
2023-01-19T08:03:10.135Z,26.5
2023-01-19T08:04:11.935Z,26.5
2023-01-19T08:05:14.453Z,26.5
2023-01-19T08:06:16.379Z,26.5
2023-01-19T08:07:18.325Z,26.5
2023-01-19T08:08:19.991Z,26.5
2023-01-19T08:09:21.812Z,26.5
2023-01-19T08:10:23.685Z,26.5
2023-01-19T08:11:25.447Z,26.5
2023-01-19T08:12:27.477Z,26.5
2023-01-19T08:13:29.250Z,26.5
2023-01-19T08:14:31.098Z,26.5
2023-01-19T08:15:33.044Z,26.5
2023-01-19T08:16:35.094Z,26.6
2023-01-19T08:17:36.921Z,26.5
2023-01-19T08:18:38.821Z,26.6
2023-01-19T08:19:41.568Z,26.6
2023-01-19T08:20:43.524Z,26.6
2023-01-19T08:21:45.370Z,26.6
2023-01-19T08:22:47.238Z,26.6
2023-01-19T08:23:49.001Z,26.7
2023-01-19T08:24:50.918Z,26.7
2023-01-19T08:25:52.942Z,26.7
2023-01-19T08:26:54.810Z,26.8
2023-01-19T08:27:56.679Z,26.8
2023-01-19T08:28:58.546Z,26.8
2023-01-19T08:30:00.482Z,26.8
2023-01-19T08:31:14.606Z,26.8
2023-01-19T08:32:26.805Z,26.8
2023-01-19T08:33:28.975Z,26.8
2023-01-19T08:34:30.931Z,26.9
2023-01-19T08:35:32.779Z,26.9
2023-01-19T08:36:34.451Z,26.9
2023-01-19T08:37:36.266Z,26.9
2023-01-19T08:38:38.063Z,26.9
2023-01-19T08:39:39.811Z,26.9
2023-01-19T08:40:41.795Z,26.8
2023-01-19T08:41:43.773Z,26.9
2023-01-19T08:42:45.719Z,26.9
2023-01-19T08:43:47.758Z,27
2023-01-19T08:44:57.446Z,26.9
2023-01-19T08:46:00.404Z,26.9
2023-01-19T08:47:02.691Z,27
2023-01-19T08:48:05.011Z,27
2023-01-19T08:49:06.926Z,27
2023-01-19T08:50:08.820Z,27
2023-01-19T08:51:10.855Z,27
2023-01-19T08:52:12.683Z,27
2023-01-19T08:53:14.482Z,27
2023-01-19T08:54:18.350Z,27
2023-01-19T08:55:20.520Z,26.9
2023-01-19T08:56:22.279Z,26.8
2023-01-19T08:57:24.120Z,26.8
2023-01-19T08:58:26.027Z,26.8
2023-01-19T08:59:27.942Z,26.8
2023-01-19T09:00:29.759Z,26.8
2023-01-19T09:01:32.099Z,26.8
2023-01-19T09:02:34.470Z,26.9
2023-01-19T09:03:37.009Z,26.9
2023-01-19T09:04:38.904Z,26.7
2023-01-19T09:05:40.760Z,26.7
2023-01-19T09:06:42.568Z,26.7
2023-01-19T09:07:44.396Z,26.7
2023-01-19T09:08:46.241Z,26.7
2023-01-19T09:09:48.184Z,26.7
2023-01-19T09:10:50.141Z,26.7
2023-01-19T09:11:52.268Z,26.7
2023-01-19T09:12:54.111Z,26.7
2023-01-19T09:13:55.855Z,26.7
2023-01-19T09:14:57.787Z,26.7
2023-01-19T09:15:59.823Z,26.7
2023-01-19T09:17:02.012Z,26.7
2023-01-19T09:18:03.902Z,26.8
2023-01-19T09:19:08.823Z,26.8
2023-01-19T09:20:10.938Z,26.8
2023-01-19T09:21:12.850Z,26.8
2023-01-19T09:22:14.947Z,26.8
2023-01-19T09:23:16.822Z,26.9
2023-01-19T09:24:18.776Z,26.8
2023-01-19T09:25:20.679Z,26.8
2023-01-19T09:26:22.623Z,26.8
2023-01-19T09:27:24.454Z,26.8
2023-01-19T09:28:26.230Z,26.9
2023-01-19T09:29:28.082Z,26.9
2023-01-19T09:30:30.271Z,26.8
2023-01-19T09:31:32.468Z,26.7
2023-01-19T09:32:34.703Z,26.6
2023-01-19T09:33:36.494Z,26.7
2023-01-19T09:34:38.399Z,26.8
2023-01-19T09:35:40.217Z,26.7
2023-01-19T09:36:41.884Z,26.7
2023-01-19T09:37:43.541Z,26.6
2023-01-19T09:38:45.306Z,26.6
2023-01-19T09:39:47.226Z,26.6
2023-01-19T09:40:49.188Z,26.7
2023-01-19T09:41:51.138Z,26.7
2023-01-19T09:42:52.867Z,26.6
2023-01-19T09:43:54.723Z,26.7
2023-01-19T09:44:56.584Z,26.6
2023-01-19T09:45:58.523Z,26.6
2023-01-19T09:47:00.330Z,26.6
2023-01-19T09:48:02.493Z,26.5
2023-01-19T09:49:05.189Z,26.6
2023-01-19T09:50:07.125Z,26.6
2023-01-19T09:51:09.212Z,26.6
2023-01-19T09:52:10.998Z,26.6
2023-01-19T09:53:12.822Z,26.7
2023-01-19T09:54:14.474Z,26.8
2023-01-19T09:55:16.490Z,26.8
2023-01-19T09:56:18.374Z,26.8
2023-01-19T09:57:20.225Z,26.7
2023-01-19T09:58:22.054Z,26.7
2023-01-19T09:59:23.927Z,26.7
2023-01-19T10:00:25.692Z,26.7
2023-01-19T10:01:27.797Z,26.7
2023-01-19T10:02:30.098Z,26.7
2023-01-19T10:03:32.036Z,26.8
2023-01-19T10:04:33.783Z,26.8
2023-01-19T10:05:35.696Z,26.8
2023-01-19T10:06:37.562Z,26.8
2023-01-19T10:07:39.652Z,26.8
2023-01-19T10:08:41.389Z,26.7
2023-01-19T10:09:43.309Z,26.7
2023-01-19T10:10:45.099Z,26.7
2023-01-19T10:11:53.070Z,26.7
2023-01-19T10:12:55.318Z,26.7
2023-01-19T10:13:57.222Z,26.7
2023-01-19T10:14:59.233Z,26.6
2023-01-19T10:16:01.156Z,26.6
2023-01-19T10:17:03.417Z,26.6
2023-01-19T10:18:05.312Z,26.7
2023-01-19T10:19:07.134Z,26.7
2023-01-19T10:20:09.018Z,26.7
2023-01-19T10:21:11.181Z,26.7
2023-01-19T10:22:13.600Z,26.7
2023-01-19T10:23:15.489Z,26.7
2023-01-19T10:24:17.342Z,26.7
2023-01-19T10:25:19.266Z,26.7
2023-01-19T10:26:21.649Z,26.7
2023-01-19T10:27:23.563Z,26.7
2023-01-19T10:28:25.426Z,26.6
2023-01-19T10:29:27.251Z,26.6
2023-01-19T10:30:29.266Z,26.6
2023-01-19T10:31:31.592Z,26.6
2023-01-19T10:32:34.539Z,26.6
2023-01-19T10:33:36.551Z,26.6
2023-01-19T10:34:38.498Z,26.6
2023-01-19T10:35:40.872Z,26.6
2023-01-19T10:36:42.691Z,26.6
2023-01-19T10:37:44.667Z,26.6
2023-01-19T10:38:46.621Z,26.5
2023-01-19T10:39:49.145Z,26.5
2023-01-19T10:40:51.595Z,26.5
2023-01-19T10:41:53.760Z,26.4
2023-01-19T10:42:55.815Z,26.4
2023-01-19T10:43:58.535Z,26.4
2023-01-19T10:45:00.527Z,26.4
2023-01-19T10:46:02.499Z,26.4
2023-01-19T10:47:04.754Z,26.5
2023-01-19T10:48:07.334Z,26.4
2023-01-19T10:49:09.462Z,26.5
2023-01-19T10:50:11.589Z,26.4
2023-01-19T10:51:13.521Z,26.4
2023-01-19T10:52:16.810Z,26.4
2023-01-19T10:53:20.703Z,26.4
2023-01-19T10:54:22.576Z,26.4
2023-01-19T10:55:24.623Z,26.5
2023-01-19T10:56:26.577Z,26.4
2023-01-19T10:57:28.595Z,26.4
2023-01-19T10:58:30.544Z,26.4
2023-01-19T10:59:32.465Z,26.4
2023-01-19T11:00:34.472Z,26.4
2023-01-19T11:01:36.424Z,26.4
2023-01-19T11:02:39.804Z,26.4
2023-01-19T11:03:41.992Z,26.4
2023-01-19T11:04:43.875Z,26.4
2023-01-19T11:05:45.923Z,26.4
2023-01-19T11:06:47.745Z,26.5
2023-01-19T11:07:49.742Z,26.5
2023-01-19T11:08:51.629Z,26.4
2023-01-19T11:09:53.458Z,26.4
2023-01-19T11:10:55.314Z,26.4
2023-01-19T11:11:57.085Z,26.4
2023-01-19T11:12:59.209Z,26.4
2023-01-19T11:14:03.210Z,26.5
2023-01-19T11:15:04.980Z,26.5
2023-01-19T11:16:06.872Z,26.5
2023-01-19T11:17:09.091Z,26.4
2023-01-19T11:18:10.911Z,26.4
2023-01-19T11:19:12.850Z,26.4
2023-01-19T11:20:14.588Z,26.4
2023-01-19T11:21:16.595Z,26.4
2023-01-19T11:22:18.515Z,26.4
2023-01-19T11:23:20.389Z,26.3
2023-01-19T11:24:22.186Z,26.3
2023-01-19T11:25:24.090Z,26.4
2023-01-19T11:26:25.890Z,26.4
2023-01-19T11:27:27.876Z,26.4
2023-01-19T11:28:29.740Z,26.4
2023-01-19T11:29:31.495Z,26.4
2023-01-19T11:30:33.343Z,26.4
2023-01-19T11:31:35.221Z,26.4
2023-01-19T11:32:37.357Z,26.4
2023-01-19T11:33:39.199Z,26.4
2023-01-19T11:34:41.148Z,26.4
2023-01-19T11:35:42.984Z,26.5
2023-01-19T11:36:44.868Z,26.5
2023-01-19T11:37:46.781Z,26.5
2023-01-19T11:38:48.605Z,26.5
2023-01-19T11:39:50.509Z,26.5
2023-01-19T11:40:52.328Z,26.6
2023-01-19T11:41:54.212Z,26.6
2023-01-19T11:42:56.152Z,26.6
2023-01-19T11:43:57.912Z,26.6
2023-01-19T11:44:59.651Z,26.6
2023-01-19T11:46:01.445Z,26.6
2023-01-19T11:47:03.371Z,26.7
2023-01-19T11:48:05.291Z,26.7
2023-01-19T11:49:07.109Z,26.7
2023-01-19T11:50:09.185Z,26.6
2023-01-19T11:51:11.070Z,26.6
2023-01-19T11:52:13.059Z,26.6
2023-01-19T11:53:14.938Z,26.5
2023-01-19T11:54:16.787Z,26.5
2023-01-19T11:55:19.256Z,26.5
2023-01-19T11:56:21.241Z,26.5
2023-01-19T11:57:23.124Z,26.5
2023-01-19T11:58:24.969Z,26.5
2023-01-19T11:59:26.776Z,26.5
2023-01-19T12:00:28.549Z,26.5
2023-01-19T12:01:30.593Z,26.5
2023-01-19T12:02:32.453Z,26.5
2023-01-19T12:03:34.677Z,26.5
2023-01-19T12:04:36.889Z,26.5
2023-01-19T12:05:38.795Z,26.5
2023-01-19T12:06:40.556Z,26.5
2023-01-19T12:07:42.407Z,26.5
2023-01-19T12:08:44.234Z,26.5
2023-01-19T12:09:46.092Z,26.5
2023-01-19T12:10:47.962Z,26.5
2023-01-19T12:11:49.759Z,26.4
2023-01-19T12:12:51.537Z,26.4
2023-01-19T12:13:53.881Z,26.3
2023-01-19T12:14:55.828Z,26.3
2023-01-19T12:15:57.675Z,26.3
2023-01-19T12:16:59.678Z,26.2
2023-01-19T12:18:01.956Z,26.3
2023-01-19T12:19:05.619Z,26.3
2023-01-19T12:20:07.521Z,26.2
2023-01-19T12:21:09.625Z,26.3
2023-01-19T12:22:11.487Z,26.3
2023-01-19T12:23:13.569Z,26.3
2023-01-19T12:24:15.372Z,26.3
2023-01-19T12:25:17.588Z,26.3
2023-01-19T12:26:19.238Z,26.4
2023-01-19T12:27:20.883Z,26.4
2023-01-19T12:28:22.731Z,26.5
2023-01-19T12:29:24.593Z,26.5
2023-01-19T12:30:26.261Z,26.6
2023-01-19T12:31:28.242Z,26.6
2023-01-19T12:32:30.707Z,26.6
2023-01-19T12:33:32.837Z,26.7
2023-01-19T12:34:35.052Z,26.6
2023-01-19T12:35:36.832Z,26.6
2023-01-19T12:36:38.797Z,26.6
2023-01-19T12:37:40.712Z,26.6
2023-01-19T12:38:42.611Z,26.6
2023-01-19T12:39:44.475Z,26.6
2023-01-19T12:40:46.217Z,26.6
2023-01-19T12:41:48.266Z,26.6
2023-01-19T12:42:50.116Z,26.6
2023-01-19T12:43:51.973Z,26.6
2023-01-19T12:44:53.713Z,26.6
2023-01-19T12:45:55.553Z,26.5
2023-01-19T12:46:57.703Z,26.5
2023-01-19T12:47:59.570Z,26.5
2023-01-19T12:49:01.431Z,26.5
2023-01-19T12:50:03.319Z,26.5
2023-01-19T12:51:05.202Z,26.5
2023-01-19T12:52:07.101Z,26.5
2023-01-19T12:53:08.824Z,26.5
2023-01-19T12:54:10.626Z,26.5
2023-01-19T12:55:12.480Z,26.4
2023-01-19T12:56:14.221Z,26.5
2023-01-19T12:57:16.247Z,26.4
2023-01-19T12:58:17.977Z,26.4
2023-01-19T12:59:19.915Z,26.4
2023-01-19T13:00:21.878Z,26.4
2023-01-19T13:01:23.750Z,26.3
2023-01-19T13:02:25.924Z,26.3
2023-01-19T13:03:27.825Z,26.3
2023-01-19T13:04:29.685Z,26.3
2023-01-19T13:05:33.078Z,26.3
2023-01-19T13:06:35.181Z,26.3
2023-01-19T13:07:37.114Z,26.3
2023-01-19T13:08:39.033Z,26.3
2023-01-19T13:09:40.994Z,26.4
2023-01-19T13:10:43.024Z,26.3
2023-01-19T13:11:50.765Z,26.3
2023-01-19T13:13:02.717Z,26.3
2023-01-19T13:14:04.538Z,26.3
2023-01-19T13:15:06.376Z,26.3
2023-01-19T13:16:08.369Z,26.2
2023-01-19T13:17:10.361Z,26.3
2023-01-19T13:18:12.279Z,26.3
2023-01-19T13:19:14.069Z,26.3
2023-01-19T13:20:16.005Z,26.3
2023-01-19T13:21:17.822Z,26.3
2023-01-19T13:22:19.432Z,26.3
2023-01-19T13:23:21.576Z,26.3
2023-01-19T13:24:25.093Z,26.4
2023-01-19T13:25:28.025Z,26.4
2023-01-19T13:26:30.118Z,26.5
2023-01-19T13:27:32.099Z,26.5
2023-01-19T13:28:33.942Z,26.5
2023-01-19T13:29:35.891Z,26.5
2023-01-19T13:30:37.958Z,26.4
2023-01-19T13:31:40.328Z,26.4
2023-01-19T13:32:42.416Z,26.3
2023-01-19T13:33:44.326Z,26.4
2023-01-19T13:34:46.042Z,26.4
2023-01-19T13:35:47.875Z,26.3
2023-01-19T13:36:49.663Z,26.3
2023-01-19T13:37:51.507Z,26.2
2023-01-19T13:38:53.388Z,26.2
2023-01-19T13:39:55.286Z,26.2
2023-01-19T13:40:57.157Z,26.2
2023-01-19T13:41:59.020Z,26.2
2023-01-19T13:43:00.859Z,26.2
2023-01-19T13:44:02.661Z,26.3
2023-01-19T13:45:04.605Z,26.2
2023-01-19T13:46:06.674Z,26.2
2023-01-19T13:47:08.688Z,26.2
2023-01-19T13:48:10.348Z,26.1
2023-01-19T13:49:12.008Z,26.2
2023-01-19T13:50:13.710Z,26.2